sensor_id;sensor_type;location;lat;lon;timestamp;P1;durP1;ratioP1;P2;durP2;ratioP2
73599;SDS011;61877;48.246;9.220;2023-08-21T00:00:07;18.50;;;9.57;;
73599;SDS011;61877;48.246;9.220;2023-08-21T00:02:35;14.47;;;8.80;;
73599;SDS011;61877;48.246;9.220;2023-08-21T00:05:00;16.35;;;9.20;;
73599;SDS011;61877;48.246;9.220;2023-08-21T00:07:26;15.27;;;9.20;;
73599;SDS011;61877;48.246;9.220;2023-08-21T00:09:53;14.87;;;9.10;;
73599;SDS011;61877;48.246;9.220;2023-08-21T00:12:18;14.00;;;9.30;;
73599;SDS011;61877;48.246;9.220;2023-08-21T00:14:44;19.10;;;8.93;;
73599;SDS011;61877;48.246;9.220;2023-08-21T00:17:10;18.75;;;8.77;;
73599;SDS011;61877;48.246;9.220;2023-08-21T00:19:39;22.60;;;9.20;;
73599;SDS011;61877;48.246;9.220;2023-08-21T00:22:05;15.63;;;9.20;;
73599;SDS011;61877;48.246;9.220;2023-08-21T00:24:33;14.07;;;9.20;;
73599;SDS011;61877;48.246;9.220;2023-08-21T00:26:58;14.63;;;9.48;;
73599;SDS011;61877;48.246;9.220;2023-08-21T00:29:24;16.93;;;8.90;;
73599;SDS011;61877;48.246;9.220;2023-08-21T00:31:49;14.87;;;9.37;;
73599;SDS011;61877;48.246;9.220;2023-08-21T00:34:15;14.10;;;9.13;;
73599;SDS011;61877;48.246;9.220;2023-08-21T00:36:42;13.93;;;9.05;;
73599;SDS011;61877;48.246;9.220;2023-08-21T00:39:08;17.23;;;9.37;;
73599;SDS011;61877;48.246;9.220;2023-08-21T00:41:33;14.80;;;9.30;;
73599;SDS011;61877;48.246;9.220;2023-08-21T00:43:59;18.42;;;9.68;;
73599;SDS011;61877;48.246;9.220;2023-08-21T00:46:24;14.70;;;9.03;;
73599;SDS011;61877;48.246;9.220;2023-08-21T00:48:50;13.87;;;9.30;;
73599;SDS011;61877;48.246;9.220;2023-08-21T00:51:16;16.92;;;8.88;;
73599;SDS011;61877;48.246;9.220;2023-08-21T00:53:44;15.70;;;9.55;;
73599;SDS011;61877;48.246;9.220;2023-08-21T00:56:09;15.32;;;8.77;;
73599;SDS011;61877;48.246;9.220;2023-08-21T00:58:35;14.67;;;8.93;;
73599;SDS011;61877;48.246;9.220;2023-08-21T01:01:01;16.70;;;8.82;;
73599;SDS011;61877;48.246;9.220;2023-08-21T01:03:26;13.53;;;8.53;;
73599;SDS011;61877;48.246;9.220;2023-08-21T01:05:52;14.48;;;8.75;;
73599;SDS011;61877;48.246;9.220;2023-08-21T01:08:21;16.70;;;8.93;;
73599;SDS011;61877;48.246;9.220;2023-08-21T01:10:53;15.23;;;9.10;;
73599;SDS011;61877;48.246;9.220;2023-08-21T01:13:26;15.38;;;9.18;;
73599;SDS011;61877;48.246;9.220;2023-08-21T01:15:59;13.93;;;9.15;;
73599;SDS011;61877;48.246;9.220;2023-08-21T01:18:25;14.50;;;9.10;;
73599;SDS011;61877;48.246;9.220;2023-08-21T01:20:53;13.85;;;9.20;;
73599;SDS011;61877;48.246;9.220;2023-08-21T01:23:29;14.83;;;9.00;;
73599;SDS011;61877;48.246;9.220;2023-08-21T01:25:56;15.50;;;9.38;;
73599;SDS011;61877;48.246;9.220;2023-08-21T01:28:21;21.75;;;9.25;;
73599;SDS011;61877;48.246;9.220;2023-08-21T01:30:47;15.67;;;8.80;;
73599;SDS011;61877;48.246;9.220;2023-08-21T01:33:16;20.15;;;8.75;;
73599;SDS011;61877;48.246;9.220;2023-08-21T01:35:44;15.85;;;9.38;;
73599;SDS011;61877;48.246;9.220;2023-08-21T01:38:09;14.70;;;9.00;;
73599;SDS011;61877;48.246;9.220;2023-08-21T01:40:37;15.00;;;9.18;;
73599;SDS011;61877;48.246;9.220;2023-08-21T01:43:02;13.60;;;9.00;;
73599;SDS011;61877;48.246;9.220;2023-08-21T01:45:28;16.15;;;9.70;;
73599;SDS011;61877;48.246;9.220;2023-08-21T01:47:53;15.57;;;9.47;;
73599;SDS011;61877;48.246;9.220;2023-08-21T01:50:19;16.40;;;9.48;;
73599;SDS011;61877;48.246;9.220;2023-08-21T01:52:44;20.27;;;9.60;;
73599;SDS011;61877;48.246;9.220;2023-08-21T01:55:10;13.10;;;9.10;;
73599;SDS011;61877;48.246;9.220;2023-08-21T01:57:36;14.80;;;9.40;;
73599;SDS011;61877;48.246;9.220;2023-08-21T02:00:02;14.02;;;8.63;;
73599;SDS011;61877;48.246;9.220;2023-08-21T02:02:31;13.30;;;9.07;;
73599;SDS011;61877;48.246;9.220;2023-08-21T02:04:56;15.93;;;9.02;;
73599;SDS011;61877;48.246;9.220;2023-08-21T02:07:22;16.03;;;8.60;;
73599;SDS011;61877;48.246;9.220;2023-08-21T02:09:50;16.20;;;8.88;;
73599;SDS011;61877;48.246;9.220;2023-08-21T02:12:16;16.47;;;9.07;;
73599;SDS011;61877;48.246;9.220;2023-08-21T02:14:42;16.83;;;9.18;;
73599;SDS011;61877;48.246;9.220;2023-08-21T02:17:08;15.13;;;8.73;;
73599;SDS011;61877;48.246;9.220;2023-08-21T02:19:33;13.50;;;8.48;;
73599;SDS011;61877;48.246;9.220;2023-08-21T02:21:59;16.17;;;8.70;;
73599;SDS011;61877;48.246;9.220;2023-08-21T02:24:24;19.40;;;9.33;;
73599;SDS011;61877;48.246;9.220;2023-08-21T02:26:52;14.35;;;8.88;;
73599;SDS011;61877;48.246;9.220;2023-08-21T02:29:18;13.97;;;8.83;;
73599;SDS011;61877;48.246;9.220;2023-08-21T02:31:47;13.87;;;8.77;;
73599;SDS011;61877;48.246;9.220;2023-08-21T02:34:13;14.90;;;8.70;;
73599;SDS011;61877;48.246;9.220;2023-08-21T02:36:38;13.27;;;8.50;;
73599;SDS011;61877;48.246;9.220;2023-08-21T02:39:04;14.07;;;8.52;;
73599;SDS011;61877;48.246;9.220;2023-08-21T02:41:30;15.10;;;8.47;;
73599;SDS011;61877;48.246;9.220;2023-08-21T02:43:55;14.52;;;8.93;;
73599;SDS011;61877;48.246;9.220;2023-08-21T02:46:21;13.60;;;8.17;;
73599;SDS011;61877;48.246;9.220;2023-08-21T02:48:48;15.98;;;8.90;;
73599;SDS011;61877;48.246;9.220;2023-08-21T02:51:13;15.50;;;8.27;;
73599;SDS011;61877;48.246;9.220;2023-08-21T02:53:39;15.20;;;8.80;;
73599;SDS011;61877;48.246;9.220;2023-08-21T02:56:04;16.37;;;8.47;;
73599;SDS011;61877;48.246;9.220;2023-08-21T02:58:30;16.23;;;9.40;;
73599;SDS011;61877;48.246;9.220;2023-08-21T03:00:55;14.33;;;8.50;;
73599;SDS011;61877;48.246;9.220;2023-08-21T03:03:22;13.05;;;8.90;;
73599;SDS011;61877;48.246;9.220;2023-08-21T03:05:49;18.73;;;9.23;;
73599;SDS011;61877;48.246;9.220;2023-08-21T03:08:14;14.48;;;8.50;;
73599;SDS011;61877;48.246;9.220;2023-08-21T03:10:40;15.63;;;9.10;;
73599;SDS011;61877;48.246;9.220;2023-08-21T03:13:05;14.87;;;8.87;;
73599;SDS011;61877;48.246;9.220;2023-08-21T03:15:34;20.77;;;9.18;;
73599;SDS011;61877;48.246;9.220;2023-08-21T03:17:59;16.07;;;9.30;;
73599;SDS011;61877;48.246;9.220;2023-08-21T03:20:25;19.10;;;8.82;;
73599;SDS011;61877;48.246;9.220;2023-08-21T03:22:52;15.60;;;8.70;;
73599;SDS011;61877;48.246;9.220;2023-08-21T03:25:17;14.52;;;9.13;;
73599;SDS011;61877;48.246;9.220;2023-08-21T03:27:43;16.57;;;9.23;;
73599;SDS011;61877;48.246;9.220;2023-08-21T03:30:10;15.20;;;8.80;;
73599;SDS011;61877;48.246;9.220;2023-08-21T03:32:39;17.83;;;8.90;;
73599;SDS011;61877;48.246;9.220;2023-08-21T03:35:04;14.83;;;8.70;;
73599;SDS011;61877;48.246;9.220;2023-08-21T03:37:30;14.18;;;8.45;;
73599;SDS011;61877;48.246;9.220;2023-08-21T03:39:57;17.38;;;8.70;;
73599;SDS011;61877;48.246;9.220;2023-08-21T03:42:23;15.73;;;8.93;;
73599;SDS011;61877;48.246;9.220;2023-08-21T03:44:48;13.27;;;8.30;;
73599;SDS011;61877;48.246;9.220;2023-08-21T03:47:13;18.30;;;8.07;;
73599;SDS011;61877;48.246;9.220;2023-08-21T03:49:39;17.47;;;8.33;;
73599;SDS011;61877;48.246;9.220;2023-08-21T03:52:05;14.95;;;8.50;;
73599;SDS011;61877;48.246;9.220;2023-08-21T03:54:30;15.07;;;8.57;;
73599;SDS011;61877;48.246;9.220;2023-08-21T03:56:57;15.20;;;7.97;;
73599;SDS011;61877;48.246;9.220;2023-08-21T03:59:22;16.95;;;7.70;;
73599;SDS011;61877;48.246;9.220;2023-08-21T04:01:48;14.63;;;8.27;;
73599;SDS011;61877;48.246;9.220;2023-08-21T04:04:13;16.02;;;8.23;;
73599;SDS011;61877;48.246;9.220;2023-08-21T04:06:39;15.17;;;7.73;;
73599;SDS011;61877;48.246;9.220;2023-08-21T04:09:04;16.27;;;8.13;;
73599;SDS011;61877;48.246;9.220;2023-08-21T04:11:30;14.20;;;8.40;;
73599;SDS011;61877;48.246;9.220;2023-08-21T04:13:57;13.60;;;8.40;;
73599;SDS011;61877;48.246;9.220;2023-08-21T04:16:22;18.73;;;8.13;;
73599;SDS011;61877;48.246;9.220;2023-08-21T04:18:47;14.07;;;8.00;;
73599;SDS011;61877;48.246;9.220;2023-08-21T04:21:13;14.43;;;8.07;;
73599;SDS011;61877;48.246;9.220;2023-08-21T04:23:38;15.63;;;8.47;;
73599;SDS011;61877;48.246;9.220;2023-08-21T04:26:04;13.68;;;7.55;;
73599;SDS011;61877;48.246;9.220;2023-08-21T04:28:30;18.20;;;7.63;;
73599;SDS011;61877;48.246;9.220;2023-08-21T04:30:58;12.43;;;7.63;;
73599;SDS011;61877;48.246;9.220;2023-08-21T04:33:24;14.35;;;7.70;;
73599;SDS011;61877;48.246;9.220;2023-08-21T04:35:50;13.17;;;7.87;;
73599;SDS011;61877;48.246;9.220;2023-08-21T04:38:15;13.57;;;7.63;;
73599;SDS011;61877;48.246;9.220;2023-08-21T04:40:41;12.00;;;7.50;;
73599;SDS011;61877;48.246;9.220;2023-08-21T04:43:06;19.13;;;8.10;;
73599;SDS011;61877;48.246;9.220;2023-08-21T04:45:35;12.83;;;7.70;;
73599;SDS011;61877;48.246;9.220;2023-08-21T04:48:02;14.20;;;8.05;;
73599;SDS011;61877;48.246;9.220;2023-08-21T04:50:31;17.05;;;8.70;;
73599;SDS011;61877;48.246;9.220;2023-08-21T04:52:59;14.88;;;8.15;;
73599;SDS011;61877;48.246;9.220;2023-08-21T04:55:26;14.45;;;8.20;;
73599;SDS011;61877;48.246;9.220;2023-08-21T04:57:51;14.07;;;8.07;;
73599;SDS011;61877;48.246;9.220;2023-08-21T05:00:17;14.65;;;8.25;;
73599;SDS011;61877;48.246;9.220;2023-08-21T05:02:42;14.63;;;7.90;;
73599;SDS011;61877;48.246;9.220;2023-08-21T05:05:09;13.07;;;7.80;;
73599;SDS011;61877;48.246;9.220;2023-08-21T05:07:35;13.90;;;8.00;;
73599;SDS011;61877;48.246;9.220;2023-08-21T05:10:03;13.50;;;7.97;;
73599;SDS011;61877;48.246;9.220;2023-08-21T05:12:29;12.40;;;7.83;;
73599;SDS011;61877;48.246;9.220;2023-08-21T05:14:55;12.65;;;7.57;;
73599;SDS011;61877;48.246;9.220;2023-08-21T05:17:23;12.50;;;7.60;;
73599;SDS011;61877;48.246;9.220;2023-08-21T05:19:49;13.30;;;8.27;;
73599;SDS011;61877;48.246;9.220;2023-08-21T05:22:16;13.03;;;7.47;;
73599;SDS011;61877;48.246;9.220;2023-08-21T05:24:42;12.83;;;7.53;;
73599;SDS011;61877;48.246;9.220;2023-08-21T05:27:07;12.95;;;7.65;;
73599;SDS011;61877;48.246;9.220;2023-08-21T05:29:33;15.23;;;8.53;;
73599;SDS011;61877;48.246;9.220;2023-08-21T05:32:04;15.50;;;8.52;;
73599;SDS011;61877;48.246;9.220;2023-08-21T05:34:29;14.20;;;8.73;;
73599;SDS011;61877;48.246;9.220;2023-08-21T05:36:55;13.50;;;8.15;;
73599;SDS011;61877;48.246;9.220;2023-08-21T05:39:22;13.90;;;8.27;;
73599;SDS011;61877;48.246;9.220;2023-08-21T05:41:48;13.45;;;8.20;;
73599;SDS011;61877;48.246;9.220;2023-08-21T05:44:14;12.73;;;8.00;;
73599;SDS011;61877;48.246;9.220;2023-08-21T05:46:40;12.23;;;7.77;;
73599;SDS011;61877;48.246;9.220;2023-08-21T05:49:05;12.65;;;7.93;;
73599;SDS011;61877;48.246;9.220;2023-08-21T05:51:31;13.30;;;7.70;;
73599;SDS011;61877;48.246;9.220;2023-08-21T05:53:57;13.50;;;7.83;;
73599;SDS011;61877;48.246;9.220;2023-08-21T05:56:24;14.60;;;8.30;;
73599;SDS011;61877;48.246;9.220;2023-08-21T05:58:50;15.23;;;8.23;;
73599;SDS011;61877;48.246;9.220;2023-08-21T06:01:15;14.83;;;8.40;;
73599;SDS011;61877;48.246;9.220;2023-08-21T06:03:40;13.60;;;7.97;;
73599;SDS011;61877;48.246;9.220;2023-08-21T06:06:08;14.80;;;8.50;;
73599;SDS011;61877;48.246;9.220;2023-08-21T06:08:34;14.23;;;8.27;;
73599;SDS011;61877;48.246;9.220;2023-08-21T06:10:59;13.27;;;8.00;;
73599;SDS011;61877;48.246;9.220;2023-08-21T06:13:26;12.52;;;8.07;;
73599;SDS011;61877;48.246;9.220;2023-08-21T06:15:52;12.97;;;8.27;;
73599;SDS011;61877;48.246;9.220;2023-08-21T06:18:17;13.52;;;8.15;;
73599;SDS011;61877;48.246;9.220;2023-08-21T06:20:43;11.97;;;8.00;;
73599;SDS011;61877;48.246;9.220;2023-08-21T06:23:08;14.38;;;8.73;;
73599;SDS011;61877;48.246;9.220;2023-08-21T06:25:35;13.23;;;8.43;;
73599;SDS011;61877;48.246;9.220;2023-08-21T06:28:00;13.80;;;8.23;;
73599;SDS011;61877;48.246;9.220;2023-08-21T06:30:29;14.27;;;8.60;;
73599;SDS011;61877;48.246;9.220;2023-08-21T06:32:55;13.68;;;8.43;;
73599;SDS011;61877;48.246;9.220;2023-08-21T06:35:21;15.35;;;8.50;;
73599;SDS011;61877;48.246;9.220;2023-08-21T06:37:46;13.17;;;8.33;;
73599;SDS011;61877;48.246;9.220;2023-08-21T06:40:12;14.57;;;8.73;;
73599;SDS011;61877;48.246;9.220;2023-08-21T06:42:38;12.83;;;8.53;;
73599;SDS011;61877;48.246;9.220;2023-08-21T06:45:03;13.73;;;8.63;;
73599;SDS011;61877;48.246;9.220;2023-08-21T06:47:34;12.75;;;8.90;;
73599;SDS011;61877;48.246;9.220;2023-08-21T06:49:59;15.32;;;8.88;;
73599;SDS011;61877;48.246;9.220;2023-08-21T06:52:25;12.93;;;8.30;;
73599;SDS011;61877;48.246;9.220;2023-08-21T06:54:50;14.80;;;8.68;;
73599;SDS011;61877;48.246;9.220;2023-08-21T06:57:16;13.13;;;9.00;;
73599;SDS011;61877;48.246;9.220;2023-08-21T06:59:45;12.48;;;8.40;;
73599;SDS011;61877;48.246;9.220;2023-08-21T07:02:11;12.17;;;8.50;;
73599;SDS011;61877;48.246;9.220;2023-08-21T07:04:40;13.23;;;8.45;;
73599;SDS011;61877;48.246;9.220;2023-08-21T07:07:06;13.32;;;8.68;;
73599;SDS011;61877;48.246;9.220;2023-08-21T07:09:32;12.83;;;8.77;;
73599;SDS011;61877;48.246;9.220;2023-08-21T07:12:00;15.13;;;8.32;;
73599;SDS011;61877;48.246;9.220;2023-08-21T07:14:25;14.67;;;8.60;;
73599;SDS011;61877;48.246;9.220;2023-08-21T07:16:51;14.52;;;8.70;;
73599;SDS011;61877;48.246;9.220;2023-08-21T07:19:17;14.80;;;8.70;;
73599;SDS011;61877;48.246;9.220;2023-08-21T07:21:43;13.25;;;8.57;;
73599;SDS011;61877;48.246;9.220;2023-08-21T07:24:12;13.40;;;8.60;;
73599;SDS011;61877;48.246;9.220;2023-08-21T07:26:37;14.43;;;8.82;;
73599;SDS011;61877;48.246;9.220;2023-08-21T07:29:03;14.98;;;8.98;;
73599;SDS011;61877;48.246;9.220;2023-08-21T07:31:34;15.73;;;8.90;;
73599;SDS011;61877;48.246;9.220;2023-08-21T07:34:00;13.13;;;9.00;;
73599;SDS011;61877;48.246;9.220;2023-08-21T07:36:26;13.80;;;8.80;;
73599;SDS011;61877;48.246;9.220;2023-08-21T07:38:52;13.77;;;10.07;;
73599;SDS011;61877;48.246;9.220;2023-08-21T07:41:19;15.88;;;8.90;;
73599;SDS011;61877;48.246;9.220;2023-08-21T07:43:46;13.93;;;9.00;;
73599;SDS011;61877;48.246;9.220;2023-08-21T07:46:12;14.17;;;9.20;;
73599;SDS011;61877;48.246;9.220;2023-08-21T07:48:38;13.13;;;8.90;;
73599;SDS011;61877;48.246;9.220;2023-08-21T07:51:06;13.20;;;8.57;;
73599;SDS011;61877;48.246;9.220;2023-08-21T07:53:32;14.90;;;9.23;;
73599;SDS011;61877;48.246;9.220;2023-08-21T07:55:59;16.07;;;10.87;;
73599;SDS011;61877;48.246;9.220;2023-08-21T07:58:26;13.65;;;10.05;;
73599;SDS011;61877;48.246;9.220;2023-08-21T08:00:57;14.23;;;9.38;;
73599;SDS011;61877;48.246;9.220;2023-08-21T08:03:25;14.27;;;8.82;;
73599;SDS011;61877;48.246;9.220;2023-08-21T08:05:53;13.80;;;8.93;;
73599;SDS011;61877;48.246;9.220;2023-08-21T08:08:20;15.50;;;9.03;;
73599;SDS011;61877;48.246;9.220;2023-08-21T08:10:49;12.45;;;8.60;;
73599;SDS011;61877;48.246;9.220;2023-08-21T08:13:16;14.05;;;8.95;;
73599;SDS011;61877;48.246;9.220;2023-08-21T08:15:44;13.90;;;8.90;;
73599;SDS011;61877;48.246;9.220;2023-08-21T08:18:11;15.00;;;8.80;;
73599;SDS011;61877;48.246;9.220;2023-08-21T08:20:42;14.27;;;8.75;;
73599;SDS011;61877;48.246;9.220;2023-08-21T08:23:13;15.70;;;8.90;;
73599;SDS011;61877;48.246;9.220;2023-08-21T08:25:44;15.18;;;9.25;;
73599;SDS011;61877;48.246;9.220;2023-08-21T08:28:10;14.57;;;9.57;;
73599;SDS011;61877;48.246;9.220;2023-08-21T08:30:37;12.93;;;8.90;;
73599;SDS011;61877;48.246;9.220;2023-08-21T08:33:05;13.73;;;9.10;;
73599;SDS011;61877;48.246;9.220;2023-08-21T08:35:30;13.30;;;8.97;;
73599;SDS011;61877;48.246;9.220;2023-08-21T08:37:59;13.10;;;8.63;;
73599;SDS011;61877;48.246;9.220;2023-08-21T08:40:25;13.30;;;9.00;;
73599;SDS011;61877;48.246;9.220;2023-08-21T08:42:53;14.43;;;9.00;;
73599;SDS011;61877;48.246;9.220;2023-08-21T08:45:22;13.88;;;8.63;;
73599;SDS011;61877;48.246;9.220;2023-08-21T08:47:54;12.60;;;8.68;;
73599;SDS011;61877;48.246;9.220;2023-08-21T08:50:20;18.27;;;9.30;;
73599;SDS011;61877;48.246;9.220;2023-08-21T08:52:46;12.65;;;9.23;;
73599;SDS011;61877;48.246;9.220;2023-08-21T08:55:12;13.20;;;8.88;;
73599;SDS011;61877;48.246;9.220;2023-08-21T08:57:38;13.37;;;8.83;;
73599;SDS011;61877;48.246;9.220;2023-08-21T09:00:05;13.80;;;8.80;;
73599;SDS011;61877;48.246;9.220;2023-08-21T09:02:31;14.88;;;9.38;;
73599;SDS011;61877;48.246;9.220;2023-08-21T09:05:01;13.33;;;8.67;;
73599;SDS011;61877;48.246;9.220;2023-08-21T09:07:26;14.57;;;8.85;;
73599;SDS011;61877;48.246;9.220;2023-08-21T09:09:51;13.67;;;8.90;;
73599;SDS011;61877;48.246;9.220;2023-08-21T09:12:17;12.82;;;8.55;;
73599;SDS011;61877;48.246;9.220;2023-08-21T09:14:43;11.93;;;8.70;;
73599;SDS011;61877;48.246;9.220;2023-08-21T09:17:09;13.43;;;9.27;;
73599;SDS011;61877;48.246;9.220;2023-08-21T09:19:35;13.10;;;8.88;;
73599;SDS011;61877;48.246;9.220;2023-08-21T09:22:11;15.20;;;8.57;;
73599;SDS011;61877;48.246;9.220;2023-08-21T09:24:37;13.98;;;9.00;;
73599;SDS011;61877;48.246;9.220;2023-08-21T09:27:03;13.37;;;8.53;;
73599;SDS011;61877;48.246;9.220;2023-08-21T09:29:41;14.38;;;8.60;;
73599;SDS011;61877;48.246;9.220;2023-08-21T09:32:06;13.30;;;8.32;;
73599;SDS011;61877;48.246;9.220;2023-08-21T09:34:35;15.03;;;9.07;;
73599;SDS011;61877;48.246;9.220;2023-08-21T09:37:01;14.07;;;8.65;;
73599;SDS011;61877;48.246;9.220;2023-08-21T09:42:18;12.80;;;8.85;;
73599;SDS011;61877;48.246;9.220;2023-08-21T09:44:47;12.73;;;8.57;;
73599;SDS011;61877;48.246;9.220;2023-08-21T09:47:16;12.43;;;8.48;;
73599;SDS011;61877;48.246;9.220;2023-08-21T09:49:42;12.63;;;8.60;;
73599;SDS011;61877;48.246;9.220;2023-08-21T09:52:08;14.60;;;8.70;;
73599;SDS011;61877;48.246;9.220;2023-08-21T09:54:37;14.07;;;8.27;;
73599;SDS011;61877;48.246;9.220;2023-08-21T09:57:07;14.50;;;9.00;;
73599;SDS011;61877;48.246;9.220;2023-08-21T09:59:38;13.30;;;8.90;;
73599;SDS011;61877;48.246;9.220;2023-08-21T10:02:05;15.13;;;8.70;;
73599;SDS011;61877;48.246;9.220;2023-08-21T10:04:34;11.82;;;8.40;;
73599;SDS011;61877;48.246;9.220;2023-08-21T10:07:00;12.48;;;8.60;;
73599;SDS011;61877;48.246;9.220;2023-08-21T10:09:32;13.05;;;8.57;;
73599;SDS011;61877;48.246;9.220;2023-08-21T10:12:09;13.98;;;8.30;;
73599;SDS011;61877;48.246;9.220;2023-08-21T10:14:37;13.47;;;8.63;;
73599;SDS011;61877;48.246;9.220;2023-08-21T10:17:06;13.30;;;8.48;;
73599;SDS011;61877;48.246;9.220;2023-08-21T10:19:32;11.18;;;8.23;;
73599;SDS011;61877;48.246;9.220;2023-08-21T10:21:57;13.80;;;8.30;;
73599;SDS011;61877;48.246;9.220;2023-08-21T10:24:28;12.48;;;8.90;;
73599;SDS011;61877;48.246;9.220;2023-08-21T10:26:58;12.70;;;8.00;;
73599;SDS011;61877;48.246;9.220;2023-08-21T10:29:26;12.73;;;8.80;;
73599;SDS011;61877;48.246;9.220;2023-08-21T10:32:00;13.38;;;8.63;;
73599;SDS011;61877;48.246;9.220;2023-08-21T10:34:34;14.30;;;8.80;;
73599;SDS011;61877;48.246;9.220;2023-08-21T10:37:06;11.50;;;8.43;;
73599;SDS011;61877;48.246;9.220;2023-08-21T10:39:33;14.03;;;8.30;;
73599;SDS011;61877;48.246;9.220;2023-08-21T10:42:00;13.27;;;8.50;;
73599;SDS011;61877;48.246;9.220;2023-08-21T10:47:18;14.02;;;8.65;;
73599;SDS011;61877;48.246;9.220;2023-08-21T10:50:08;11.53;;;8.43;;
73599;SDS011;61877;48.246;9.220;2023-08-21T10:52:42;12.40;;;8.48;;
73599;SDS011;61877;48.246;9.220;2023-08-21T10:55:28;12.43;;;8.23;;
73599;SDS011;61877;48.246;9.220;2023-08-21T10:57:55;14.57;;;8.50;;
73599;SDS011;61877;48.246;9.220;2023-08-21T11:03:21;12.00;;;8.40;;
73599;SDS011;61877;48.246;9.220;2023-08-21T11:08:36;14.27;;;8.50;;
73599;SDS011;61877;48.246;9.220;2023-08-21T11:11:13;12.18;;;8.43;;
73599;SDS011;61877;48.246;9.220;2023-08-21T11:13:38;11.82;;;8.27;;
73599;SDS011;61877;48.246;9.220;2023-08-21T11:16:04;12.97;;;8.10;;
73599;SDS011;61877;48.246;9.220;2023-08-21T11:18:33;12.05;;;8.20;;
73599;SDS011;61877;48.246;9.220;2023-08-21T11:21:04;12.07;;;8.13;;
73599;SDS011;61877;48.246;9.220;2023-08-21T11:23:32;12.75;;;8.40;;
73599;SDS011;61877;48.246;9.220;2023-08-21T11:26:01;15.13;;;8.30;;
73599;SDS011;61877;48.246;9.220;2023-08-21T11:28:29;14.37;;;9.13;;
73599;SDS011;61877;48.246;9.220;2023-08-21T11:31:07;15.45;;;8.23;;
73599;SDS011;61877;48.246;9.220;2023-08-21T11:33:37;13.30;;;8.65;;
73599;SDS011;61877;48.246;9.220;2023-08-21T11:39:21;11.27;;;8.25;;
73599;SDS011;61877;48.246;9.220;2023-08-21T11:41:53;12.03;;;8.03;;
73599;SDS011;61877;48.246;9.220;2023-08-21T11:44:23;11.18;;;8.40;;
73599;SDS011;61877;48.246;9.220;2023-08-21T11:46:50;11.57;;;8.02;;
73599;SDS011;61877;48.246;9.220;2023-08-21T11:49:27;11.70;;;7.18;;
73599;SDS011;61877;48.246;9.220;2023-08-21T11:52:18;12.57;;;8.30;;
73599;SDS011;61877;48.246;9.220;2023-08-21T11:55:01;10.40;;;7.80;;
73599;SDS011;61877;48.246;9.220;2023-08-21T11:57:27;11.68;;;8.13;;
73599;SDS011;61877;48.246;9.220;2023-08-21T11:59:53;12.63;;;8.23;;
73599;SDS011;61877;48.246;9.220;2023-08-21T12:02:22;15.00;;;8.60;;
73599;SDS011;61877;48.246;9.220;2023-08-21T12:07:53;11.93;;;7.93;;
73599;SDS011;61877;48.246;9.220;2023-08-21T12:10:23;11.82;;;7.85;;
73599;SDS011;61877;48.246;9.220;2023-08-21T12:12:53;14.77;;;8.95;;
73599;SDS011;61877;48.246;9.220;2023-08-21T12:18:21;13.13;;;8.40;;
73599;SDS011;61877;48.246;9.220;2023-08-21T12:20:47;15.13;;;8.80;;
73599;SDS011;61877;48.246;9.220;2023-08-21T12:23:14;13.05;;;8.48;;
73599;SDS011;61877;48.246;9.220;2023-08-21T12:25:42;12.23;;;9.03;;
73599;SDS011;61877;48.246;9.220;2023-08-21T12:28:08;15.77;;;9.20;;
73599;SDS011;61877;48.246;9.220;2023-08-21T12:30:43;11.70;;;8.20;;
73599;SDS011;61877;48.246;9.220;2023-08-21T12:33:08;13.27;;;8.30;;
73599;SDS011;61877;48.246;9.220;2023-08-21T12:35:37;14.37;;;8.47;;
73599;SDS011;61877;48.246;9.220;2023-08-21T12:38:10;11.85;;;8.13;;
73599;SDS011;61877;48.246;9.220;2023-08-21T12:40:37;17.38;;;9.05;;
73599;SDS011;61877;48.246;9.220;2023-08-21T12:43:03;12.53;;;8.60;;
73599;SDS011;61877;48.246;9.220;2023-08-21T12:45:32;13.50;;;8.60;;
73599;SDS011;61877;48.246;9.220;2023-08-21T12:47:57;11.90;;;8.15;;
73599;SDS011;61877;48.246;9.220;2023-08-21T12:50:23;12.70;;;8.02;;
73599;SDS011;61877;48.246;9.220;2023-08-21T12:52:49;13.30;;;8.10;;
73599;SDS011;61877;48.246;9.220;2023-08-21T12:58:19;11.77;;;7.95;;
73599;SDS011;61877;48.246;9.220;2023-08-21T13:00:45;12.65;;;8.63;;
73599;SDS011;61877;48.246;9.220;2023-08-21T13:03:11;12.20;;;8.10;;
73599;SDS011;61877;48.246;9.220;2023-08-21T13:05:37;12.18;;;8.57;;
73599;SDS011;61877;48.246;9.220;2023-08-21T13:08:03;12.40;;;8.10;;
73599;SDS011;61877;48.246;9.220;2023-08-21T13:10:29;13.30;;;8.80;;
73599;SDS011;61877;48.246;9.220;2023-08-21T13:12:58;12.10;;;8.23;;
73599;SDS011;61877;48.246;9.220;2023-08-21T13:15:24;12.38;;;7.72;;
73599;SDS011;61877;48.246;9.220;2023-08-21T13:17:50;13.70;;;8.75;;
73599;SDS011;61877;48.246;9.220;2023-08-21T13:20:16;12.30;;;7.83;;
73599;SDS011;61877;48.246;9.220;2023-08-21T13:22:45;12.43;;;8.60;;
73599;SDS011;61877;48.246;9.220;2023-08-21T13:25:12;13.13;;;8.77;;
73599;SDS011;61877;48.246;9.220;2023-08-21T13:27:40;13.40;;;8.67;;
73599;SDS011;61877;48.246;9.220;2023-08-21T13:30:12;14.50;;;8.13;;
73599;SDS011;61877;48.246;9.220;2023-08-21T13:32:38;11.85;;;8.40;;
73599;SDS011;61877;48.246;9.220;2023-08-21T13:35:05;14.90;;;8.52;;
73599;SDS011;61877;48.246;9.220;2023-08-21T13:37:32;12.63;;;8.52;;
73599;SDS011;61877;48.246;9.220;2023-08-21T13:39:58;11.30;;;9.10;;
73599;SDS011;61877;48.246;9.220;2023-08-21T13:42:25;12.00;;;8.55;;
73599;SDS011;61877;48.246;9.220;2023-08-21T13:44:51;13.30;;;8.40;;
73599;SDS011;61877;48.246;9.220;2023-08-21T13:47:19;13.20;;;8.23;;
73599;SDS011;61877;48.246;9.220;2023-08-21T13:49:45;11.68;;;8.00;;
73599;SDS011;61877;48.246;9.220;2023-08-21T13:52:11;12.97;;;8.80;;
73599;SDS011;61877;48.246;9.220;2023-08-21T13:54:38;15.60;;;8.70;;
73599;SDS011;61877;48.246;9.220;2023-08-21T13:57:05;14.10;;;8.60;;
73599;SDS011;61877;48.246;9.220;2023-08-21T13:59:31;14.07;;;8.65;;
73599;SDS011;61877;48.246;9.220;2023-08-21T14:01:57;11.95;;;8.55;;
73599;SDS011;61877;48.246;9.220;2023-08-21T14:04:25;15.27;;;8.50;;
73599;SDS011;61877;48.246;9.220;2023-08-21T14:06:51;11.90;;;8.18;;
73599;SDS011;61877;48.246;9.220;2023-08-21T14:09:17;15.97;;;8.57;;
73599;SDS011;61877;48.246;9.220;2023-08-21T14:11:44;13.00;;;8.55;;
73599;SDS011;61877;48.246;9.220;2023-08-21T14:14:10;16.45;;;9.32;;
73599;SDS011;61877;48.246;9.220;2023-08-21T14:16:36;13.35;;;8.90;;
73599;SDS011;61877;48.246;9.220;2023-08-21T14:19:03;12.07;;;8.73;;
73599;SDS011;61877;48.246;9.220;2023-08-21T14:21:31;13.23;;;8.40;;
73599;SDS011;61877;48.246;9.220;2023-08-21T14:23:58;14.13;;;8.85;;
73599;SDS011;61877;48.246;9.220;2023-08-21T14:26:25;13.18;;;9.07;;
73599;SDS011;61877;48.246;9.220;2023-08-21T14:28:51;13.13;;;9.27;;
73599;SDS011;61877;48.246;9.220;2023-08-21T14:31:17;13.70;;;8.97;;
73599;SDS011;61877;48.246;9.220;2023-08-21T14:33:43;13.70;;;8.70;;
73599;SDS011;61877;48.246;9.220;2023-08-21T14:36:09;13.13;;;9.00;;
73599;SDS011;61877;48.246;9.220;2023-08-21T14:38:38;14.07;;;8.50;;
73599;SDS011;61877;48.246;9.220;2023-08-21T14:41:04;12.40;;;9.10;;
73599;SDS011;61877;48.246;9.220;2023-08-21T14:43:30;12.20;;;9.23;;
73599;SDS011;61877;48.246;9.220;2023-08-21T14:45:56;11.88;;;9.05;;
73599;SDS011;61877;48.246;9.220;2023-08-21T14:48:22;12.37;;;9.10;;
73599;SDS011;61877;48.246;9.220;2023-08-21T14:50:47;13.47;;;8.87;;
73599;SDS011;61877;48.246;9.220;2023-08-21T14:53:14;12.25;;;8.75;;
73599;SDS011;61877;48.246;9.220;2023-08-21T14:55:42;14.67;;;9.20;;